Air Sicilia Virtual Airways - Route

Air Sicilia Virtual Airways - SIC010A

( IT ) LIRP - 00:00
Pisa International Airport
PISA ( PSA )
plane_to ( IT ) LIRU - 00:00
Urbe Airport
ROMA ( )

AIRPORT NEAR NAVIGATION AIDS

Type Name Frequency
TACAN Pisa 108300 KHZ
VOR-DME Pisa 112100 KHZ
NDB Pisa 379 KHZ

METAR / TAF
LIRP 181515Z 30012KT 9999 FEW040 30/21 Q1015 NOSIG
LIRP 181100Z 1812/1912 29010KT 9999 FEW040 BECMG 1818/1820 09005KT

RUNWAY INFORMATION

Runway Runway length Runway width Runway elevation Runway displaced threshold Runway heading
04L 9160 141 2 979 37
22R 9160 141 6 0 217
04R 9820 148 3 490 37
22L 9820 148 6 843 217

AIRPORT FREQUENCIES

Type Name Frequency
APP APP 122.1 MHZ
GND GND 121.6 MHZ
TWR TWR 119.1 MHZ

AIRPORT NEAR NAVIGATION AIDS

Type Name Frequency
NDB Urbe 285 KHZ

METAR / TAF
LIRU 181450Z VRB03KT 030V150 9999 SCT040 22/21 Q1016

RUNWAY INFORMATION

Runway Runway length Runway width Runway elevation Runway displaced threshold Runway heading
16 3543 98 55 361 160
34 3543 98 55 820 340

AIRPORT FREQUENCIES

Type Name Frequency
GND GND 122.7 MHZ
TWR TWR 123.8 MHZ

Flightplan

VFR

Air Sicilia Virtual Airways Fleets

AVAILABLE AIRCRAFTS for route at this time in Pisa International Airport

At this time no aircraft Air Sicilia Virtual Airways is available at Pisa International Airport
Only Charter flights.

139.495 NM

Distance in nautical miles.

€ 268,00

Ticket price for this flight.

0 h.

Estimated flight time.



07-08-2018
Aerosoft Professional Flight Planner PFPX

PFPX - Professional Flight Planner X - è un nuovo ed innovativo strumento di pianificazione del volo sviluppato da piloti e dispatcher del mondo reale. È un'aggiunta preziosa e realistica alla tua esperienza di simulaz ....


19-07-2018
Aerosoft Oslo X

L'Aeroporto di Oslo-Gardermoen (IATA: OSL, ICAO: ENGM) è il principale aeroporto norvegese e il 19° in Europa, è situato vicino alla cittadina di Ullensaker nella contea di Akershus e serve la capitale Oslo. Ha sostit ....


21-06-2018
Aerosoft Malpensa Professional P3Dv4

L'Aeroporto di Milano-Malpensa (IATA: MXP, ICAO: LIMC) è un aeroporto italiano situato nella provincia di Varese in Lombardia, ma considerato come il principale aeroporto di Milano.

È il secondo aeroporto ital ....


06-06-2018
1° Raduno Air Sicilia Virtual - parla il C.E.O.

Grande successo per il 1° Raduno di Compagnia dell'Air Sicilia Virtual, che ha visto i membri della Crew presenti il 4 giugno 2018 a Thiene ( VI ) , cimentarsi dal vivo con le reali ....


24-05-2018
Aerosoft Airport Rome XP

Tra le nostre recensioni non poteva mancare certo la nuova uscita Aerosoft per X-Plane, stiamo parlando di Airport Rome XP, finalmente un Add-on pay completo dell'Aeroporto di Roma Fiumicino per gli utilizzatori del simu ....